createdAt,value
2018-02-06T00:00:49.524Z,12.35
2018-02-06T00:03:23.228Z,12.35
2018-02-06T00:05:56.844Z,12.20
2018-02-06T00:08:30.520Z,12.63
2018-02-06T00:11:04.262Z,11.00
2018-02-06T00:13:38.029Z,12.77
2018-02-06T00:16:11.629Z,11.65
2018-02-06T00:18:45.360Z,11.43
2018-02-06T00:21:18.980Z,12.85
2018-02-06T00:23:52.502Z,11.00
2018-02-06T00:26:26.229Z,10.40
2018-02-06T00:28:59.877Z,10.55
2018-02-06T00:31:33.429Z,10.98
2018-02-06T00:34:07.144Z,10.73
2018-02-06T00:36:40.833Z,10.60
2018-02-06T00:39:14.579Z,10.70
2018-02-06T00:41:48.270Z,12.35
2018-02-06T00:44:21.933Z,11.52
2018-02-06T00:46:55.652Z,11.27
2018-02-06T00:49:29.334Z,11.10
2018-02-06T00:52:03.210Z,10.48
2018-02-06T00:54:36.711Z,9.82
2018-02-06T00:57:10.426Z,11.55
2018-02-06T00:59:44.612Z,10.80
2018-02-06T01:02:19.392Z,10.07
2018-02-06T01:04:53.469Z,10.30
2018-02-06T01:07:26.980Z,12.40
2018-02-06T01:10:01.389Z,12.75
2018-02-06T01:12:35.577Z,12.05
2018-02-06T01:15:09.937Z,11.80
2018-02-06T01:17:43.798Z,12.32
2018-02-06T01:20:17.361Z,11.70
2018-02-06T01:22:51.153Z,12.25
2018-02-06T01:25:24.774Z,11.48
2018-02-06T01:27:58.644Z,12.88
2018-02-06T01:30:32.410Z,13.38
2018-02-06T01:33:06.251Z,12.18
2018-02-06T01:35:39.845Z,11.45
2018-02-06T01:38:13.461Z,12.48
2018-02-06T01:40:47.259Z,11.48
2018-02-06T01:43:21.267Z,13.05
2018-02-06T01:45:55.504Z,13.23
2018-02-06T01:48:29.877Z,14.23
2018-02-06T01:51:03.913Z,13.20
2018-02-06T01:53:37.546Z,12.57
2018-02-06T01:56:11.140Z,13.20
2018-02-06T01:58:45.153Z,13.00
2018-02-06T02:01:19.369Z,13.35
2018-02-06T02:03:53.116Z,12.20
2018-02-06T02:06:26.594Z,12.50
2018-02-06T02:09:00.513Z,12.07
2018-02-06T02:11:34.244Z,13.40
2018-02-06T02:14:08.030Z,13.82
2018-02-06T02:16:41.549Z,14.00
2018-02-06T02:19:15.274Z,13.93
2018-02-06T02:21:48.805Z,12.00
2018-02-06T02:24:22.497Z,12.40
2018-02-06T02:26:56.148Z,12.32
2018-02-06T02:29:30.065Z,12.70
2018-02-06T02:32:03.739Z,11.68
2018-02-06T02:34:37.480Z,13.85
2018-02-06T02:37:11.121Z,12.43
2018-02-06T02:39:44.954Z,11.90
2018-02-06T04:40:12.330Z,14.23
2018-02-06T04:42:46.126Z,11.80
2018-02-06T04:45:19.960Z,11.98
2018-02-06T04:47:53.486Z,14.93
2018-02-06T04:50:29.591Z,15.23
2018-02-06T04:53:04.030Z,12.88
2018-02-06T04:55:38.124Z,12.25
2018-02-06T04:58:12.189Z,12.85
2018-02-06T05:00:45.946Z,12.82
2018-02-06T05:03:19.748Z,13.27
2018-02-06T05:05:53.462Z,11.45
2018-02-06T05:08:27.206Z,13.00
2018-02-06T05:11:00.983Z,14.02
2018-02-06T05:13:34.648Z,14.23
2018-02-06T05:16:08.393Z,13.20
2018-02-06T05:18:42.203Z,12.77
2018-02-06T05:21:15.770Z,11.70
2018-02-06T05:23:49.488Z,13.32
2018-02-06T05:26:23.005Z,12.37
2018-02-06T05:28:56.500Z,12.40
2018-02-06T05:31:30.374Z,12.13
2018-02-06T05:34:04.346Z,12.30
2018-02-06T05:36:38.056Z,11.05
2018-02-06T05:39:11.521Z,11.05
2018-02-06T05:41:45.250Z,11.85
2018-02-06T05:44:18.908Z,11.40
2018-02-06T05:46:53.251Z,11.65
2018-02-06T05:49:26.967Z,10.93
2018-02-06T05:52:00.531Z,11.50
2018-02-06T05:54:34.225Z,10.30
2018-02-06T05:57:07.943Z,11.15
2018-02-06T05:59:41.729Z,9.93
2018-02-06T06:02:15.308Z,11.90
2018-02-06T06:04:48.986Z,10.93
2018-02-06T06:07:22.734Z,10.10
2018-02-06T06:09:56.413Z,10.25
2018-02-06T06:12:30.817Z,10.43
2018-02-06T06:15:04.465Z,11.80
2018-02-06T06:17:38.177Z,11.05
2018-02-06T06:20:11.803Z,9.23
2018-02-06T06:22:45.448Z,10.80
2018-02-06T06:25:19.176Z,9.75
2018-02-06T06:27:52.845Z,9.57
2018-02-06T06:30:26.398Z,11.05
2018-02-06T06:33:00.103Z,9.77
2018-02-06T06:35:33.848Z,10.10
2018-02-06T06:38:07.599Z,10.95
2018-02-06T06:40:41.297Z,9.40
2018-02-06T06:43:15.021Z,10.48
2018-02-06T06:45:48.550Z,11.40
2018-02-06T06:48:22.443Z,10.30
2018-02-06T06:50:56.205Z,10.10
2018-02-06T06:53:29.874Z,12.18
2018-02-06T06:56:03.365Z,12.25
2018-02-06T06:58:37.050Z,11.50
2018-02-06T07:01:10.707Z,11.05
2018-02-06T07:03:44.526Z,12.30
2018-02-06T07:06:18.138Z,13.20
2018-02-06T07:08:51.777Z,12.73
2018-02-06T07:11:25.488Z,11.70
2018-02-06T07:13:59.155Z,12.63
2018-02-06T07:16:32.977Z,13.68
2018-02-06T07:19:06.917Z,13.75
2018-02-06T07:21:40.604Z,15.30
2018-02-06T07:24:14.284Z,12.90
2018-02-06T07:26:48.058Z,15.55
2018-02-06T07:29:21.743Z,13.27
2018-02-06T07:31:55.520Z,12.57
2018-02-06T07:34:29.396Z,12.43
2018-02-06T07:37:02.960Z,12.90
2018-02-06T07:39:37.299Z,13.50
2018-02-06T07:42:11.957Z,11.98
2018-02-06T07:44:46.311Z,14.05
2018-02-06T07:47:20.033Z,12.10
2018-02-06T07:49:53.709Z,12.77
2018-02-06T07:52:27.478Z,12.37
2018-02-06T07:55:01.272Z,12.43
2018-02-06T07:57:34.884Z,12.75
2018-02-06T08:00:08.475Z,12.25
2018-02-06T08:02:42.256Z,10.70
2018-02-06T08:05:15.981Z,12.25
2018-02-06T08:07:49.594Z,10.30
2018-02-06T08:10:23.298Z,11.25
2018-02-06T08:12:56.999Z,12.43
2018-02-06T08:15:30.597Z,10.82
2018-02-06T08:18:04.273Z,10.98
2018-02-06T08:20:37.957Z,9.98
2018-02-06T08:23:11.719Z,9.98
2018-02-06T08:25:45.224Z,10.32
2018-02-06T08:28:19.010Z,12.00
2018-02-06T08:30:52.669Z,10.70
2018-02-06T08:33:26.341Z,8.82
2018-02-06T08:36:00.133Z,9.30
2018-02-06T08:38:33.977Z,9.38
2018-02-06T08:41:07.787Z,10.15
2018-02-06T08:43:41.427Z,9.85
2018-02-06T08:46:15.109Z,9.23
2018-02-06T08:48:48.751Z,9.15
2018-02-06T08:51:22.325Z,10.00
2018-02-06T08:53:56.280Z,9.30
2018-02-06T08:56:29.841Z,9.02
2018-02-06T08:59:03.677Z,9.40
2018-02-06T09:01:37.232Z,7.95
2018-02-06T09:04:10.914Z,9.85
2018-02-06T09:06:44.548Z,8.80
2018-02-06T09:09:18.099Z,8.40
2018-02-06T09:11:51.785Z,10.35
2018-02-06T09:14:25.507Z,9.38
2018-02-06T09:16:59.070Z,10.32
2018-02-06T09:19:32.751Z,9.95
2018-02-06T09:22:06.268Z,9.90
2018-02-06T09:24:39.957Z,9.48
2018-02-06T09:27:13.658Z,9.68
2018-02-06T09:29:47.378Z,9.80
2018-02-06T09:32:20.897Z,9.68
2018-02-06T09:34:54.626Z,9.30
2018-02-06T09:37:28.296Z,9.88
2018-02-06T09:40:01.991Z,10.43
2018-02-06T09:42:35.756Z,11.10
2018-02-06T09:45:09.678Z,11.05
2018-02-06T09:47:43.149Z,10.40
2018-02-06T09:50:16.723Z,9.10
2018-02-06T09:52:50.610Z,9.70
2018-02-06T09:55:24.332Z,9.23
2018-02-06T09:57:57.836Z,9.43
2018-02-06T10:00:31.768Z,9.02
2018-02-06T10:03:05.622Z,8.25
2018-02-06T10:05:39.301Z,9.25
2018-02-06T10:08:12.957Z,8.85
2018-02-06T10:10:46.685Z,9.43
2018-02-06T10:13:20.449Z,8.95
2018-02-06T10:15:54.229Z,9.38
2018-02-06T10:18:27.895Z,8.68
2018-02-06T10:21:01.653Z,8.20
2018-02-06T10:23:35.353Z,8.95
2018-02-06T10:26:09.219Z,8.70
2018-02-06T10:28:43.013Z,9.48
2018-02-06T10:31:16.775Z,8.45
2018-02-06T10:33:50.478Z,8.40
2018-02-06T10:36:24.312Z,7.57
2018-02-06T10:38:57.983Z,7.90
2018-02-06T10:41:31.481Z,7.17
2018-02-06T10:44:05.039Z,7.23
2018-02-06T10:46:38.978Z,6.63
2018-02-06T10:49:12.450Z,6.37
2018-02-06T10:51:46.195Z,6.25
2018-02-06T10:54:19.954Z,6.87
2018-02-06T10:56:53.796Z,6.30
2018-02-06T10:59:28.196Z,7.07
2018-02-06T11:02:01.750Z,6.17
2018-02-06T11:04:35.437Z,6.20
2018-02-06T11:07:09.313Z,6.70
2018-02-06T11:09:42.949Z,6.30
2018-02-06T11:12:16.664Z,6.53
2018-02-06T11:14:50.301Z,5.30
2018-02-06T11:17:24.982Z,5.90
2018-02-06T11:19:58.630Z,5.97
2018-02-06T11:22:32.123Z,6.50
2018-02-06T11:25:05.705Z,7.30
2018-02-06T11:27:39.445Z,7.60
2018-02-06T11:30:13.189Z,6.47
2018-02-06T11:32:46.937Z,5.67
2018-02-06T11:35:20.814Z,7.87
2018-02-06T11:37:54.399Z,5.87
2018-02-06T11:40:28.608Z,7.67
2018-02-06T11:43:02.572Z,7.27
2018-02-06T11:45:36.361Z,6.67
2018-02-06T11:48:09.931Z,5.80
2018-02-06T11:50:43.472Z,6.10
2018-02-06T11:53:17.313Z,7.37
2018-02-06T11:55:50.968Z,5.82
2018-02-06T11:58:24.605Z,6.93
2018-02-06T12:00:58.128Z,7.10
2018-02-06T12:03:32.028Z,5.75
2018-02-06T12:06:05.564Z,5.80
2018-02-06T12:08:39.277Z,5.72
2018-02-06T12:11:13.067Z,8.75
2018-02-06T12:13:46.865Z,5.68
2018-02-06T12:16:20.508Z,4.83
2018-02-06T12:18:54.221Z,6.17
2018-02-06T12:21:27.964Z,6.32
2018-02-06T12:24:02.414Z,6.20
2018-02-06T12:26:36.147Z,4.57
2018-02-06T12:29:10.530Z,5.30
2018-02-06T12:31:44.624Z,5.07
2018-02-06T12:34:18.461Z,6.33
2018-02-06T12:36:51.986Z,5.30
2018-02-06T12:39:25.651Z,5.50
2018-02-06T12:41:59.443Z,6.60
2018-02-06T12:44:33.093Z,5.85
2018-02-06T12:47:06.756Z,6.03
2018-02-06T12:49:40.596Z,6.18
2018-02-06T12:52:14.174Z,6.22
2018-02-06T12:54:48.016Z,5.03
2018-02-06T12:57:21.739Z,5.40
2018-02-06T12:59:55.572Z,5.32
2018-02-06T13:02:29.131Z,5.50
2018-02-06T13:05:02.751Z,6.00
2018-02-06T13:07:36.381Z,5.40
2018-02-06T13:10:10.208Z,5.62
2018-02-06T13:12:43.806Z,6.43
2018-02-06T13:15:17.745Z,5.53
2018-02-06T13:17:51.477Z,6.57
2018-02-06T13:20:25.216Z,5.55
2018-02-06T13:22:59.164Z,6.57
2018-02-06T13:25:32.840Z,6.80
2018-02-06T13:28:06.480Z,5.47
2018-02-06T13:30:40.216Z,6.27
2018-02-06T13:33:13.968Z,6.43
2018-02-06T13:35:47.871Z,6.77
2018-02-06T13:38:21.521Z,6.22
2018-02-06T13:40:55.256Z,6.20
2018-02-06T13:43:28.956Z,6.90
2018-02-06T13:46:02.527Z,5.87
2018-02-06T13:48:36.089Z,6.93
2018-02-06T13:51:09.703Z,6.30
2018-02-06T13:53:43.314Z,7.30
2018-02-06T13:56:17.100Z,5.43
2018-02-06T13:58:50.760Z,6.40
2018-02-06T14:01:24.432Z,6.13
2018-02-06T14:03:58.012Z,6.43
2018-02-06T14:06:31.900Z,6.50
2018-02-06T14:09:05.637Z,6.30
2018-02-06T14:11:39.430Z,6.13
2018-02-06T14:14:12.864Z,5.50
2018-02-06T14:16:46.724Z,5.70
2018-02-06T14:19:20.389Z,5.70
2018-02-06T14:21:54.143Z,6.43
2018-02-06T14:24:28.672Z,11.50
2018-02-06T14:27:02.687Z,18.20
2018-02-06T14:29:36.497Z,22.70
2018-02-06T14:32:11.112Z,8.77
2018-02-06T14:34:45.088Z,6.50
2018-02-06T14:37:20.531Z,6.27
2018-02-06T14:39:54.566Z,9.48
2018-02-06T14:42:28.189Z,12.00
2018-02-06T14:45:01.873Z,8.07
2018-02-06T14:47:35.589Z,6.40
2018-02-06T14:50:09.425Z,6.85
2018-02-06T14:52:43.134Z,6.57
2018-02-06T14:55:16.856Z,7.35
2018-02-06T14:57:50.577Z,8.95
2018-02-06T15:00:24.272Z,6.90
2018-02-06T15:02:57.966Z,9.18
2018-02-06T15:05:31.648Z,20.75
2018-02-06T15:08:05.405Z,19.12
2018-02-06T15:10:39.149Z,10.07
2018-02-06T15:13:12.856Z,14.15
2018-02-06T15:15:46.429Z,8.90
2018-02-06T15:18:20.074Z,6.27
2018-02-06T15:20:53.784Z,7.60
2018-02-06T15:23:27.833Z,6.30
2018-02-06T15:26:01.528Z,5.72
2018-02-06T15:28:35.195Z,6.05
2018-02-06T15:31:08.841Z,6.10
2018-02-06T15:33:42.581Z,5.68
2018-02-06T15:36:16.226Z,6.55
2018-02-06T15:38:50.121Z,6.90
2018-02-06T15:41:23.589Z,6.85
2018-02-06T15:43:57.274Z,7.47
2018-02-06T15:46:30.914Z,6.28
2018-02-06T15:49:04.660Z,6.40
2018-02-06T15:51:38.488Z,6.10
2018-02-06T15:54:12.253Z,5.85
2018-02-06T15:56:45.912Z,7.00
2018-02-06T15:59:19.490Z,7.57
2018-02-06T16:01:53.181Z,7.90
2018-02-06T16:04:26.767Z,10.45
2018-02-06T16:07:00.412Z,10.52
2018-02-06T16:09:34.123Z,11.73
2018-02-06T16:12:07.810Z,14.60
2018-02-06T16:14:41.514Z,16.15
2018-02-06T16:17:15.021Z,8.57
2018-02-06T16:19:48.757Z,26.30
2018-02-06T16:22:22.473Z,8.70
2018-02-06T16:24:56.147Z,24.05
2018-02-06T16:27:29.773Z,9.13
2018-02-06T16:30:03.769Z,8.10
2018-02-06T16:32:37.268Z,7.07
2018-02-06T16:35:11.106Z,8.32
2018-02-06T16:37:44.831Z,7.95
2018-02-06T16:40:18.590Z,7.47
2018-02-06T16:42:52.108Z,7.57
2018-02-06T16:45:25.807Z,8.35
2018-02-06T16:47:59.650Z,8.90
2018-02-06T16:50:33.424Z,9.70
2018-02-06T16:53:07.180Z,9.60
2018-02-06T16:55:40.936Z,9.73
2018-02-06T16:58:14.487Z,10.32
2018-02-06T17:00:48.335Z,8.98
2018-02-06T17:03:22.077Z,10.20
2018-02-06T17:05:56.695Z,9.03
2018-02-06T17:08:30.581Z,9.50
2018-02-06T17:11:04.332Z,11.27
2018-02-06T17:13:38.021Z,10.52
2018-02-06T17:16:11.611Z,10.18
2018-02-06T17:18:45.067Z,10.25
2018-02-06T17:21:18.826Z,11.27
2018-02-06T17:23:52.517Z,11.25
2018-02-06T17:26:26.240Z,10.30
2018-02-06T17:28:59.828Z,12.20
2018-02-06T17:31:33.403Z,10.00
2018-02-06T17:34:07.334Z,10.32
2018-02-06T17:36:41.125Z,10.43
2018-02-06T17:39:14.850Z,11.45
2018-02-06T17:41:48.414Z,9.82
2018-02-06T17:44:22.077Z,10.80
2018-02-06T17:46:55.781Z,11.88
2018-02-06T17:49:29.654Z,9.88
2018-02-06T17:52:03.553Z,10.07
2018-02-06T17:54:37.128Z,9.68
2018-02-06T17:57:11.138Z,13.45
2018-02-06T17:59:44.715Z,18.77
2018-02-06T18:02:18.340Z,22.52
2018-02-06T18:04:51.921Z,22.05
2018-02-06T18:07:25.449Z,30.58
2018-02-06T18:09:59.333Z,56.08
2018-02-06T18:12:33.170Z,18.37
2018-02-06T18:15:06.918Z,14.87
2018-02-06T18:17:41.025Z,16.37
2018-02-06T18:20:15.288Z,19.75
2018-02-06T18:22:49.287Z,17.83
2018-02-06T18:25:23.594Z,19.40
2018-02-06T18:27:57.279Z,20.45
2018-02-06T18:30:31.173Z,23.23
2018-02-06T18:33:04.828Z,26.52
2018-02-06T18:35:38.529Z,24.33
2018-02-06T18:38:12.157Z,20.08
2018-02-06T18:40:45.818Z,19.85
2018-02-06T18:43:19.798Z,13.45
2018-02-06T18:45:53.467Z,12.63
2018-02-06T18:48:27.365Z,11.25
2018-02-06T18:51:01.102Z,11.85
2018-02-06T18:53:34.773Z,11.90
2018-02-06T18:56:08.615Z,11.20
2018-02-06T18:58:42.397Z,11.50
2018-02-06T19:01:16.031Z,10.85
2018-02-06T19:03:50.505Z,10.63
2018-02-06T19:06:24.729Z,12.10
2018-02-06T19:08:58.297Z,11.23
2018-02-06T19:11:32.049Z,10.75
2018-02-06T19:14:05.674Z,10.63
2018-02-06T19:16:39.409Z,11.70
2018-02-06T19:19:13.310Z,10.05
2018-02-06T19:21:46.861Z,10.70
2018-02-06T19:24:20.914Z,10.57
2018-02-06T19:26:54.425Z,10.98
2018-02-06T19:29:28.229Z,11.23
2018-02-06T19:32:01.872Z,11.55
2018-02-06T19:34:35.442Z,12.98
2018-02-06T19:37:09.235Z,11.80
2018-02-06T19:39:43.082Z,13.48
2018-02-06T19:42:16.892Z,12.20
2018-02-06T19:44:50.486Z,11.45
2018-02-06T19:47:24.569Z,12.37
2018-02-06T19:49:58.017Z,12.13
2018-02-06T19:52:32.032Z,11.98
2018-02-06T19:55:05.548Z,15.05
2018-02-06T19:57:39.380Z,16.05
2018-02-06T20:00:13.146Z,16.02
2018-02-06T20:02:46.795Z,14.70
2018-02-06T20:05:20.424Z,14.27
2018-02-06T20:07:54.116Z,13.55
2018-02-06T20:10:28.425Z,11.85
2018-02-06T20:13:02.599Z,11.73
2018-02-06T20:15:36.328Z,11.98
2018-02-06T20:18:10.050Z,12.60
2018-02-06T20:20:44.286Z,35.97
2018-02-06T20:23:18.567Z,48.78
2018-02-06T20:25:52.189Z,15.63
2018-02-06T20:28:26.172Z,15.60
2018-02-06T20:30:59.798Z,13.48
2018-02-06T20:33:33.597Z,14.95
2018-02-06T20:36:07.393Z,14.87
2018-02-06T20:38:41.029Z,14.65
2018-02-06T20:41:14.820Z,16.35
2018-02-06T20:43:48.636Z,13.68
2018-02-06T20:46:22.381Z,14.10
2018-02-06T20:48:55.961Z,13.95
2018-02-06T20:51:29.858Z,13.32
2018-02-06T20:54:03.874Z,15.55
2018-02-06T20:56:37.413Z,13.80
2018-02-06T20:59:11.064Z,12.98
2018-02-06T21:01:45.270Z,14.65
2018-02-06T21:04:19.438Z,13.73
2018-02-06T21:06:53.379Z,14.38
2018-02-06T21:09:27.197Z,22.50
2018-02-06T21:12:00.916Z,17.75
2018-02-06T21:14:34.661Z,13.93
2018-02-06T21:17:08.542Z,15.55
2018-02-06T21:19:42.154Z,17.65
2018-02-06T21:22:15.832Z,14.55
2018-02-06T21:24:49.619Z,12.93
2018-02-06T21:27:23.701Z,13.10
2018-02-06T21:29:57.166Z,12.40
2018-02-06T21:32:30.777Z,12.93
2018-02-06T21:35:05.080Z,13.27
2018-02-06T21:37:39.322Z,13.27
2018-02-06T21:40:13.133Z,14.55
2018-02-06T21:42:46.629Z,13.18
2018-02-06T21:45:20.539Z,12.65
2018-02-06T21:47:54.225Z,14.35
2018-02-06T21:50:28.156Z,14.75
2018-02-06T21:53:01.675Z,14.20
2018-02-06T21:55:35.332Z,12.80
2018-02-06T21:58:09.076Z,12.68
2018-02-06T22:00:43.068Z,13.15
2018-02-06T22:03:16.513Z,14.40
2018-02-06T22:05:51.001Z,13.15
2018-02-06T22:08:25.034Z,12.48
2018-02-06T22:10:58.509Z,13.98
2018-02-06T22:13:32.321Z,12.70
2018-02-06T22:16:05.748Z,13.55
2018-02-06T22:18:39.721Z,12.90
2018-02-06T22:21:13.629Z,12.90
2018-02-06T22:23:47.324Z,12.98
2018-02-06T22:26:21.144Z,12.88
2018-02-06T22:28:54.824Z,13.30
2018-02-06T22:31:28.447Z,12.23
2018-02-06T22:34:02.356Z,13.30
2018-02-06T22:36:36.155Z,12.73
2018-02-06T22:39:11.115Z,12.88
2018-02-06T22:41:44.977Z,14.27
2018-02-06T22:44:18.882Z,10.75
2018-02-06T22:46:52.530Z,12.98
2018-02-06T22:49:26.516Z,13.60
2018-02-06T22:51:59.957Z,11.35
2018-02-06T22:54:33.932Z,12.75
2018-02-06T22:57:07.530Z,12.07
2018-02-06T22:59:41.436Z,12.85
2018-02-06T23:02:15.233Z,12.85
2018-02-06T23:04:49.014Z,12.55
2018-02-06T23:07:22.942Z,11.90
2018-02-06T23:09:56.604Z,11.45
2018-02-06T23:12:30.459Z,10.68
2018-02-06T23:15:04.485Z,13.35
2018-02-06T23:17:38.105Z,12.60
2018-02-06T23:20:12.092Z,11.18
2018-02-06T23:22:45.996Z,11.12
2018-02-06T23:25:19.585Z,10.90
2018-02-06T23:27:53.209Z,13.23
2018-02-06T23:30:27.089Z,13.05
2018-02-06T23:33:00.819Z,12.20
2018-02-06T23:35:34.735Z,11.45
2018-02-06T23:38:08.621Z,12.18
2018-02-06T23:40:42.561Z,12.43
2018-02-06T23:43:16.112Z,11.40
2018-02-06T23:45:49.928Z,13.35
2018-02-06T23:48:23.830Z,12.50
2018-02-06T23:50:58.286Z,11.60
2018-02-06T23:53:32.453Z,10.80
2018-02-06T23:56:06.678Z,12.40
2018-02-06T23:58:40.848Z,12.10
